sensor_id;sensor_type;location;lat;lon;timestamp;P1;durP1;ratioP1;P2;durP2;ratioP2
7199;SDS011;3641;49.082;8.200;2022-10-16T00:00:10;6.30;;;2.72;;
7199;SDS011;3641;49.082;8.200;2022-10-16T00:02:38;4.70;;;2.30;;
7199;SDS011;3641;49.082;8.200;2022-10-16T00:05:04;5.03;;;2.47;;
7199;SDS011;3641;49.082;8.200;2022-10-16T00:07:31;5.82;;;2.78;;
7199;SDS011;3641;49.082;8.200;2022-10-16T00:09:57;5.93;;;2.30;;
7199;SDS011;3641;49.082;8.200;2022-10-16T00:12:24;8.23;;;2.38;;
7199;SDS011;3641;49.082;8.200;2022-10-16T00:14:50;7.35;;;2.72;;
7199;SDS011;3641;49.082;8.200;2022-10-16T00:17:18;8.85;;;2.28;;
7199;SDS011;3641;49.082;8.200;2022-10-16T00:19:45;7.50;;;2.58;;
7199;SDS011;3641;49.082;8.200;2022-10-16T00:22:11;6.60;;;2.47;;
7199;SDS011;3641;49.082;8.200;2022-10-16T00:24:38;8.88;;;2.67;;
7199;SDS011;3641;49.082;8.200;2022-10-16T00:27:04;5.43;;;2.33;;
7199;SDS011;3641;49.082;8.200;2022-10-16T00:29:31;9.30;;;2.75;;
7199;SDS011;3641;49.082;8.200;2022-10-16T00:31:57;4.22;;;2.40;;
7199;SDS011;3641;49.082;8.200;2022-10-16T00:34:25;6.10;;;2.65;;
7199;SDS011;3641;49.082;8.200;2022-10-16T00:36:51;7.78;;;2.60;;
7199;SDS011;3641;49.082;8.200;2022-10-16T00:39:18;7.68;;;2.80;;
7199;SDS011;3641;49.082;8.200;2022-10-16T00:41:44;6.55;;;3.42;;
7199;SDS011;3641;49.082;8.200;2022-10-16T00:47:18;10.43;;;2.70;;
7199;SDS011;3641;49.082;8.200;2022-10-16T00:49:48;7.13;;;2.83;;
7199;SDS011;3641;49.082;8.200;2022-10-16T00:52:17;9.10;;;2.50;;
7199;SDS011;3641;49.082;8.200;2022-10-16T00:54:44;5.22;;;2.40;;
7199;SDS011;3641;49.082;8.200;2022-10-16T00:57:13;3.97;;;2.13;;
7199;SDS011;3641;49.082;8.200;2022-10-16T00:59:40;5.25;;;2.63;;
7199;SDS011;3641;49.082;8.200;2022-10-16T01:02:08;6.55;;;2.80;;
7199;SDS011;3641;49.082;8.200;2022-10-16T01:04:37;5.38;;;2.55;;
7199;SDS011;3641;49.082;8.200;2022-10-16T01:07:09;7.32;;;2.88;;
7199;SDS011;3641;49.082;8.200;2022-10-16T01:09:43;10.00;;;2.78;;
7199;SDS011;3641;49.082;8.200;2022-10-16T01:12:19;8.35;;;2.85;;
7199;SDS011;3641;49.082;8.200;2022-10-16T01:14:55;10.00;;;2.85;;
7199;SDS011;3641;49.082;8.200;2022-10-16T01:17:26;7.60;;;2.65;;
7199;SDS011;3641;49.082;8.200;2022-10-16T01:20:06;8.23;;;2.85;;
7199;SDS011;3641;49.082;8.200;2022-10-16T01:22:44;9.40;;;3.10;;
7199;SDS011;3641;49.082;8.200;2022-10-16T01:25:21;9.88;;;2.67;;
7199;SDS011;3641;49.082;8.200;2022-10-16T01:27:58;7.32;;;2.88;;
7199;SDS011;3641;49.082;8.200;2022-10-16T01:30:27;9.20;;;2.92;;
7199;SDS011;3641;49.082;8.200;2022-10-16T01:32:59;5.32;;;3.13;;
7199;SDS011;3641;49.082;8.200;2022-10-16T01:35:29;7.20;;;2.78;;
7199;SDS011;3641;49.082;8.200;2022-10-16T01:37:58;5.95;;;3.03;;
7199;SDS011;3641;49.082;8.200;2022-10-16T01:40:29;5.70;;;2.95;;
7199;SDS011;3641;49.082;8.200;2022-10-16T01:43:00;8.93;;;3.00;;
7199;SDS011;3641;49.082;8.200;2022-10-16T01:45:29;6.78;;;2.83;;
7199;SDS011;3641;49.082;8.200;2022-10-16T01:47:58;5.28;;;2.95;;
7199;SDS011;3641;49.082;8.200;2022-10-16T01:50:29;9.40;;;2.92;;
7199;SDS011;3641;49.082;8.200;2022-10-16T01:52:57;8.40;;;2.67;;
7199;SDS011;3641;49.082;8.200;2022-10-16T01:55:26;10.50;;;3.55;;
7199;SDS011;3641;49.082;8.200;2022-10-16T01:57:56;6.57;;;2.78;;
7199;SDS011;3641;49.082;8.200;2022-10-16T02:00:27;5.43;;;2.70;;
7199;SDS011;3641;49.082;8.200;2022-10-16T02:02:56;6.45;;;2.78;;
7199;SDS011;3641;49.082;8.200;2022-10-16T02:05:28;14.13;;;2.80;;
7199;SDS011;3641;49.082;8.200;2022-10-16T02:07:58;9.35;;;2.83;;
7199;SDS011;3641;49.082;8.200;2022-10-16T02:10:25;9.70;;;2.83;;
7199;SDS011;3641;49.082;8.200;2022-10-16T02:12:56;4.97;;;3.05;;
7199;SDS011;3641;49.082;8.200;2022-10-16T02:15:25;7.32;;;2.92;;
7199;SDS011;3641;49.082;8.200;2022-10-16T02:17:53;7.03;;;3.00;;
7199;SDS011;3641;49.082;8.200;2022-10-16T02:20:20;5.30;;;2.80;;
7199;SDS011;3641;49.082;8.200;2022-10-16T02:22:51;9.13;;;2.90;;
7199;SDS011;3641;49.082;8.200;2022-10-16T02:25:22;7.82;;;3.13;;
7199;SDS011;3641;49.082;8.200;2022-10-16T02:27:53;5.70;;;3.10;;
7199;SDS011;3641;49.082;8.200;2022-10-16T02:30:24;7.10;;;3.00;;
7199;SDS011;3641;49.082;8.200;2022-10-16T02:32:54;9.50;;;3.35;;
7199;SDS011;3641;49.082;8.200;2022-10-16T02:35:23;7.20;;;3.20;;
7199;SDS011;3641;49.082;8.200;2022-10-16T02:37:52;6.57;;;3.00;;
7199;SDS011;3641;49.082;8.200;2022-10-16T02:40:20;7.80;;;3.05;;
7199;SDS011;3641;49.082;8.200;2022-10-16T02:42:49;6.57;;;2.90;;
7199;SDS011;3641;49.082;8.200;2022-10-16T02:45:16;9.32;;;3.35;;
7199;SDS011;3641;49.082;8.200;2022-10-16T02:47:43;10.75;;;3.17;;
7199;SDS011;3641;49.082;8.200;2022-10-16T02:50:11;11.30;;;3.10;;
7199;SDS011;3641;49.082;8.200;2022-10-16T02:52:38;9.98;;;2.90;;
7199;SDS011;3641;49.082;8.200;2022-10-16T02:55:05;8.45;;;3.03;;
7199;SDS011;3641;49.082;8.200;2022-10-16T02:57:32;6.22;;;3.00;;
7199;SDS011;3641;49.082;8.200;2022-10-16T02:59:58;13.60;;;3.40;;
7199;SDS011;3641;49.082;8.200;2022-10-16T03:02:25;6.78;;;3.13;;
7199;SDS011;3641;49.082;8.200;2022-10-16T03:04:51;10.90;;;3.47;;
7199;SDS011;3641;49.082;8.200;2022-10-16T03:07:19;6.28;;;3.10;;
7199;SDS011;3641;49.082;8.200;2022-10-16T03:09:45;6.82;;;3.53;;
7199;SDS011;3641;49.082;8.200;2022-10-16T03:12:12;11.48;;;3.63;;
7199;SDS011;3641;49.082;8.200;2022-10-16T03:14:38;8.32;;;3.10;;
7199;SDS011;3641;49.082;8.200;2022-10-16T03:17:05;11.00;;;3.15;;
7199;SDS011;3641;49.082;8.200;2022-10-16T03:19:32;6.88;;;3.00;;
7199;SDS011;3641;49.082;8.200;2022-10-16T03:21:58;6.50;;;3.13;;
7199;SDS011;3641;49.082;8.200;2022-10-16T03:24:26;11.45;;;3.05;;
7199;SDS011;3641;49.082;8.200;2022-10-16T03:26:53;9.48;;;2.90;;
7199;SDS011;3641;49.082;8.200;2022-10-16T03:29:19;6.35;;;2.67;;
7199;SDS011;3641;49.082;8.200;2022-10-16T03:31:46;8.40;;;3.30;;
7199;SDS011;3641;49.082;8.200;2022-10-16T03:34:13;7.53;;;3.33;;
7199;SDS011;3641;49.082;8.200;2022-10-16T03:36:39;5.55;;;3.13;;
7199;SDS011;3641;49.082;8.200;2022-10-16T03:39:06;6.82;;;3.17;;
7199;SDS011;3641;49.082;8.200;2022-10-16T03:41:34;6.43;;;3.30;;
7199;SDS011;3641;49.082;8.200;2022-10-16T03:44:00;9.18;;;3.60;;
7199;SDS011;3641;49.082;8.200;2022-10-16T03:46:27;9.70;;;3.53;;
7199;SDS011;3641;49.082;8.200;2022-10-16T03:48:54;9.02;;;3.25;;
7199;SDS011;3641;49.082;8.200;2022-10-16T03:51:21;5.35;;;3.10;;
7199;SDS011;3641;49.082;8.200;2022-10-16T03:53:47;8.82;;;3.40;;
7199;SDS011;3641;49.082;8.200;2022-10-16T03:56:13;9.35;;;3.20;;
7199;SDS011;3641;49.082;8.200;2022-10-16T03:58:41;10.15;;;3.15;;
7199;SDS011;3641;49.082;8.200;2022-10-16T04:01:08;6.47;;;3.00;;
7199;SDS011;3641;49.082;8.200;2022-10-16T04:03:34;8.30;;;3.50;;
7199;SDS011;3641;49.082;8.200;2022-10-16T04:06:01;7.97;;;3.30;;
7199;SDS011;3641;49.082;8.200;2022-10-16T04:08:27;9.57;;;3.05;;
7199;SDS011;3641;49.082;8.200;2022-10-16T04:10:54;7.10;;;2.95;;
7199;SDS011;3641;49.082;8.200;2022-10-16T04:13:20;11.30;;;3.05;;
7199;SDS011;3641;49.082;8.200;2022-10-16T04:15:48;7.82;;;2.67;;
7199;SDS011;3641;49.082;8.200;2022-10-16T04:18:14;5.65;;;2.97;;
7199;SDS011;3641;49.082;8.200;2022-10-16T04:20:41;9.68;;;3.22;;
7199;SDS011;3641;49.082;8.200;2022-10-16T04:23:07;8.75;;;3.83;;
7199;SDS011;3641;49.082;8.200;2022-10-16T04:25:34;9.95;;;3.63;;
7199;SDS011;3641;49.082;8.200;2022-10-16T04:28:00;8.13;;;3.45;;
7199;SDS011;3641;49.082;8.200;2022-10-16T04:30:27;11.32;;;4.13;;
7199;SDS011;3641;49.082;8.200;2022-10-16T04:32:54;7.88;;;3.95;;
7199;SDS011;3641;49.082;8.200;2022-10-16T04:35:21;12.85;;;4.28;;
7199;SDS011;3641;49.082;8.200;2022-10-16T04:37:48;8.52;;;4.50;;
7199;SDS011;3641;49.082;8.200;2022-10-16T04:40:15;9.70;;;3.70;;
7199;SDS011;3641;49.082;8.200;2022-10-16T04:42:42;11.77;;;3.50;;
7199;SDS011;3641;49.082;8.200;2022-10-16T04:45:09;8.10;;;3.70;;
7199;SDS011;3641;49.082;8.200;2022-10-16T04:47:36;9.27;;;3.72;;
7199;SDS011;3641;49.082;8.200;2022-10-16T04:50:04;12.13;;;3.92;;
7199;SDS011;3641;49.082;8.200;2022-10-16T04:52:32;8.18;;;3.70;;
7199;SDS011;3641;49.082;8.200;2022-10-16T04:54:58;12.07;;;4.10;;
7199;SDS011;3641;49.082;8.200;2022-10-16T04:57:27;7.65;;;3.58;;
7199;SDS011;3641;49.082;8.200;2022-10-16T04:59:54;13.57;;;3.55;;
7199;SDS011;3641;49.082;8.200;2022-10-16T05:02:20;6.93;;;3.35;;
7199;SDS011;3641;49.082;8.200;2022-10-16T05:04:47;11.40;;;5.07;;
7199;SDS011;3641;49.082;8.200;2022-10-16T05:07:15;12.77;;;5.30;;
7199;SDS011;3641;49.082;8.200;2022-10-16T05:09:41;11.55;;;3.78;;
7199;SDS011;3641;49.082;8.200;2022-10-16T05:12:08;7.10;;;3.55;;
7199;SDS011;3641;49.082;8.200;2022-10-16T05:14:34;11.93;;;3.40;;
7199;SDS011;3641;49.082;8.200;2022-10-16T05:17:01;8.75;;;3.58;;
7199;SDS011;3641;49.082;8.200;2022-10-16T05:19:27;7.47;;;3.88;;
7199;SDS011;3641;49.082;8.200;2022-10-16T05:21:53;10.82;;;4.55;;
7199;SDS011;3641;49.082;8.200;2022-10-16T05:24:21;8.68;;;3.50;;
7199;SDS011;3641;49.082;8.200;2022-10-16T05:26:48;11.38;;;3.65;;
7199;SDS011;3641;49.082;8.200;2022-10-16T05:29:14;9.23;;;3.95;;
7199;SDS011;3641;49.082;8.200;2022-10-16T05:31:41;7.93;;;4.15;;
7199;SDS011;3641;49.082;8.200;2022-10-16T05:34:07;7.43;;;4.00;;
7199;SDS011;3641;49.082;8.200;2022-10-16T05:36:34;11.88;;;4.22;;
7199;SDS011;3641;49.082;8.200;2022-10-16T05:39:00;7.63;;;3.88;;
7199;SDS011;3641;49.082;8.200;2022-10-16T05:41:28;9.60;;;3.65;;
7199;SDS011;3641;49.082;8.200;2022-10-16T05:43:55;10.48;;;3.75;;
7199;SDS011;3641;49.082;8.200;2022-10-16T05:46:21;9.18;;;3.60;;
7199;SDS011;3641;49.082;8.200;2022-10-16T05:48:47;8.10;;;3.67;;
7199;SDS011;3641;49.082;8.200;2022-10-16T05:51:14;13.98;;;4.93;;
7199;SDS011;3641;49.082;8.200;2022-10-16T05:53:41;11.20;;;4.07;;
7199;SDS011;3641;49.082;8.200;2022-10-16T05:56:09;11.18;;;3.90;;
7199;SDS011;3641;49.082;8.200;2022-10-16T05:58:39;9.10;;;3.75;;
7199;SDS011;3641;49.082;8.200;2022-10-16T06:01:09;11.45;;;3.20;;
7199;SDS011;3641;49.082;8.200;2022-10-16T06:03:37;8.85;;;3.72;;
7199;SDS011;3641;49.082;8.200;2022-10-16T06:06:10;11.10;;;3.95;;
7199;SDS011;3641;49.082;8.200;2022-10-16T06:08:38;6.65;;;3.67;;
7199;SDS011;3641;49.082;8.200;2022-10-16T06:11:06;9.45;;;4.05;;
7199;SDS011;3641;49.082;8.200;2022-10-16T06:13:34;12.75;;;5.00;;
7199;SDS011;3641;49.082;8.200;2022-10-16T06:16:02;8.63;;;5.00;;
7199;SDS011;3641;49.082;8.200;2022-10-16T06:18:29;8.48;;;4.63;;
7199;SDS011;3641;49.082;8.200;2022-10-16T06:20:56;12.38;;;4.20;;
7199;SDS011;3641;49.082;8.200;2022-10-16T06:23:23;8.90;;;3.72;;
7199;SDS011;3641;49.082;8.200;2022-10-16T06:25:50;12.25;;;3.65;;
7199;SDS011;3641;49.082;8.200;2022-10-16T06:28:17;9.45;;;3.65;;
7199;SDS011;3641;49.082;8.200;2022-10-16T06:30:43;11.15;;;3.88;;
7199;SDS011;3641;49.082;8.200;2022-10-16T06:33:12;10.40;;;3.88;;
7199;SDS011;3641;49.082;8.200;2022-10-16T06:35:39;15.88;;;4.07;;
7199;SDS011;3641;49.082;8.200;2022-10-16T06:38:05;8.13;;;3.40;;
7199;SDS011;3641;49.082;8.200;2022-10-16T06:40:32;11.20;;;3.70;;
7199;SDS011;3641;49.082;8.200;2022-10-16T06:42:58;10.52;;;3.67;;
7199;SDS011;3641;49.082;8.200;2022-10-16T06:45:24;6.13;;;3.25;;
7199;SDS011;3641;49.082;8.200;2022-10-16T06:47:51;11.45;;;3.55;;
7199;SDS011;3641;49.082;8.200;2022-10-16T06:50:19;9.40;;;3.45;;
7199;SDS011;3641;49.082;8.200;2022-10-16T06:52:45;7.88;;;3.58;;
7199;SDS011;3641;49.082;8.200;2022-10-16T06:55:12;7.88;;;3.15;;
7199;SDS011;3641;49.082;8.200;2022-10-16T06:57:39;6.78;;;3.08;;
7199;SDS011;3641;49.082;8.200;2022-10-16T07:00:06;7.78;;;3.60;;
7199;SDS011;3641;49.082;8.200;2022-10-16T07:02:33;9.73;;;3.60;;
7199;SDS011;3641;49.082;8.200;2022-10-16T07:04:59;12.35;;;4.22;;
7199;SDS011;3641;49.082;8.200;2022-10-16T07:07:27;9.35;;;3.85;;
7199;SDS011;3641;49.082;8.200;2022-10-16T07:09:54;12.35;;;4.43;;
7199;SDS011;3641;49.082;8.200;2022-10-16T07:12:20;8.82;;;4.68;;
7199;SDS011;3641;49.082;8.200;2022-10-16T07:14:47;9.88;;;3.83;;
7199;SDS011;3641;49.082;8.200;2022-10-16T07:17:13;12.38;;;3.58;;
7199;SDS011;3641;49.082;8.200;2022-10-16T07:19:40;9.82;;;3.63;;
7199;SDS011;3641;49.082;8.200;2022-10-16T07:22:06;9.02;;;3.40;;
7199;SDS011;3641;49.082;8.200;2022-10-16T07:24:34;8.52;;;3.47;;
7199;SDS011;3641;49.082;8.200;2022-10-16T07:27:00;7.75;;;3.55;;
7199;SDS011;3641;49.082;8.200;2022-10-16T07:29:27;10.60;;;3.88;;
7199;SDS011;3641;49.082;8.200;2022-10-16T07:31:53;6.65;;;3.67;;
7199;SDS011;3641;49.082;8.200;2022-10-16T07:34:20;12.10;;;4.65;;
7199;SDS011;3641;49.082;8.200;2022-10-16T07:36:47;7.10;;;3.42;;
7199;SDS011;3641;49.082;8.200;2022-10-16T07:39:14;8.77;;;4.00;;
7199;SDS011;3641;49.082;8.200;2022-10-16T07:41:42;6.40;;;3.53;;
7199;SDS011;3641;49.082;8.200;2022-10-16T07:44:08;8.40;;;4.05;;
7199;SDS011;3641;49.082;8.200;2022-10-16T07:46:35;8.43;;;3.55;;
7199;SDS011;3641;49.082;8.200;2022-10-16T07:49:02;13.52;;;4.15;;
7199;SDS011;3641;49.082;8.200;2022-10-16T07:51:29;7.40;;;3.50;;
7199;SDS011;3641;49.082;8.200;2022-10-16T07:53:56;9.05;;;4.00;;
7199;SDS011;3641;49.082;8.200;2022-10-16T07:56:22;7.85;;;4.35;;
7199;SDS011;3641;49.082;8.200;2022-10-16T07:58:51;10.35;;;4.03;;
7199;SDS011;3641;49.082;8.200;2022-10-16T08:01:18;8.25;;;3.70;;
7199;SDS011;3641;49.082;8.200;2022-10-16T08:03:45;8.18;;;4.28;;
7199;SDS011;3641;49.082;8.200;2022-10-16T08:06:13;7.68;;;4.15;;
7199;SDS011;3641;49.082;8.200;2022-10-16T08:08:40;7.65;;;3.15;;
7199;SDS011;3641;49.082;8.200;2022-10-16T08:11:07;11.68;;;4.38;;
7199;SDS011;3641;49.082;8.200;2022-10-16T08:13:33;9.80;;;3.63;;
7199;SDS011;3641;49.082;8.200;2022-10-16T08:16:02;8.77;;;3.72;;
7199;SDS011;3641;49.082;8.200;2022-10-16T08:18:32;7.25;;;3.00;;
7199;SDS011;3641;49.082;8.200;2022-10-16T08:20:59;9.20;;;3.78;;
7199;SDS011;3641;49.082;8.200;2022-10-16T08:23:26;9.38;;;4.18;;
7199;SDS011;3641;49.082;8.200;2022-10-16T08:25:54;9.65;;;4.32;;
7199;SDS011;3641;49.082;8.200;2022-10-16T08:28:21;9.60;;;4.05;;
7199;SDS011;3641;49.082;8.200;2022-10-16T08:30:48;10.95;;;4.22;;
7199;SDS011;3641;49.082;8.200;2022-10-16T08:33:16;9.23;;;3.80;;
7199;SDS011;3641;49.082;8.200;2022-10-16T08:35:42;7.10;;;3.65;;
7199;SDS011;3641;49.082;8.200;2022-10-16T08:38:15;6.45;;;3.65;;
7199;SDS011;3641;49.082;8.200;2022-10-16T08:40:42;9.88;;;3.88;;
7199;SDS011;3641;49.082;8.200;2022-10-16T08:43:13;8.93;;;3.55;;
7199;SDS011;3641;49.082;8.200;2022-10-16T08:46:02;7.65;;;3.30;;
7199;SDS011;3641;49.082;8.200;2022-10-16T08:48:43;8.07;;;3.83;;
7199;SDS011;3641;49.082;8.200;2022-10-16T08:51:15;6.40;;;3.30;;
7199;SDS011;3641;49.082;8.200;2022-10-16T08:53:48;8.80;;;3.65;;
7199;SDS011;3641;49.082;8.200;2022-10-16T08:56:17;8.82;;;3.55;;
7199;SDS011;3641;49.082;8.200;2022-10-16T08:58:43;9.32;;;3.63;;
7199;SDS011;3641;49.082;8.200;2022-10-16T09:01:12;10.35;;;4.65;;
7199;SDS011;3641;49.082;8.200;2022-10-16T09:03:46;10.70;;;3.33;;
7199;SDS011;3641;49.082;8.200;2022-10-16T09:06:35;6.10;;;3.40;;
7199;SDS011;3641;49.082;8.200;2022-10-16T09:09:17;10.07;;;3.90;;
7199;SDS011;3641;49.082;8.200;2022-10-16T09:12:03;7.30;;;4.00;;
7199;SDS011;3641;49.082;8.200;2022-10-16T09:14:38;16.67;;;4.28;;
7199;SDS011;3641;49.082;8.200;2022-10-16T09:17:18;7.90;;;3.35;;
7199;SDS011;3641;49.082;8.200;2022-10-16T09:19:53;8.55;;;4.25;;
7199;SDS011;3641;49.082;8.200;2022-10-16T09:22:35;9.43;;;3.78;;
7199;SDS011;3641;49.082;8.200;2022-10-16T09:25:05;10.80;;;4.55;;
7199;SDS011;3641;49.082;8.200;2022-10-16T09:27:37;5.80;;;3.97;;
7199;SDS011;3641;49.082;8.200;2022-10-16T09:30:09;8.38;;;3.95;;
7199;SDS011;3641;49.082;8.200;2022-10-16T09:32:37;6.38;;;3.75;;
7199;SDS011;3641;49.082;8.200;2022-10-16T09:35:09;8.35;;;3.53;;
7199;SDS011;3641;49.082;8.200;2022-10-16T09:37:40;6.40;;;2.90;;
7199;SDS011;3641;49.082;8.200;2022-10-16T09:40:12;6.15;;;3.10;;
7199;SDS011;3641;49.082;8.200;2022-10-16T09:42:39;9.65;;;3.35;;
7199;SDS011;3641;49.082;8.200;2022-10-16T09:45:18;9.75;;;2.88;;
7199;SDS011;3641;49.082;8.200;2022-10-16T09:47:47;8.52;;;3.35;;
7199;SDS011;3641;49.082;8.200;2022-10-16T09:50:21;5.95;;;3.22;;
7199;SDS011;3641;49.082;8.200;2022-10-16T09:52:51;4.13;;;2.60;;
7199;SDS011;3641;49.082;8.200;2022-10-16T09:55:29;9.60;;;2.45;;
7199;SDS011;3641;49.082;8.200;2022-10-16T09:57:55;7.30;;;2.80;;
7199;SDS011;3641;49.082;8.200;2022-10-16T10:00:22;10.50;;;2.72;;
7199;SDS011;3641;49.082;8.200;2022-10-16T10:02:49;7.80;;;2.20;;
7199;SDS011;3641;49.082;8.200;2022-10-16T10:05:18;8.18;;;2.80;;
7199;SDS011;3641;49.082;8.200;2022-10-16T10:07:53;4.60;;;2.08;;
7199;SDS011;3641;49.082;8.200;2022-10-16T10:10:22;5.72;;;2.30;;
7199;SDS011;3641;49.082;8.200;2022-10-16T10:12:50;6.32;;;2.17;;
7199;SDS011;3641;49.082;8.200;2022-10-16T10:15:17;8.75;;;2.00;;
7199;SDS011;3641;49.082;8.200;2022-10-16T10:17:47;3.50;;;1.90;;
7199;SDS011;3641;49.082;8.200;2022-10-16T10:20:18;6.25;;;2.35;;
7199;SDS011;3641;49.082;8.200;2022-10-16T10:22:50;3.97;;;1.85;;
7199;SDS011;3641;49.082;8.200;2022-10-16T10:25:31;7.68;;;2.25;;
7199;SDS011;3641;49.082;8.200;2022-10-16T10:28:26;8.75;;;2.40;;
7199;SDS011;3641;49.082;8.200;2022-10-16T10:31:06;5.85;;;1.90;;
7199;SDS011;3641;49.082;8.200;2022-10-16T10:33:39;15.80;;;2.70;;
7199;SDS011;3641;49.082;8.200;2022-10-16T10:36:12;5.63;;;1.70;;
7199;SDS011;3641;49.082;8.200;2022-10-16T10:38:49;3.40;;;1.83;;
7199;SDS011;3641;49.082;8.200;2022-10-16T10:41:24;8.43;;;2.10;;
7199;SDS011;3641;49.082;8.200;2022-10-16T10:44:04;6.57;;;1.80;;
7199;SDS011;3641;49.082;8.200;2022-10-16T10:46:38;8.13;;;2.30;;
7199;SDS011;3641;49.082;8.200;2022-10-16T10:52:02;4.90;;;1.65;;
7199;SDS011;3641;49.082;8.200;2022-10-16T10:54:41;4.43;;;1.98;;
7199;SDS011;3641;49.082;8.200;2022-10-16T10:57:18;5.03;;;1.73;;
7199;SDS011;3641;49.082;8.200;2022-10-16T10:59:57;3.95;;;1.60;;
7199;SDS011;3641;49.082;8.200;2022-10-16T11:02:32;5.53;;;2.05;;
7199;SDS011;3641;49.082;8.200;2022-10-16T11:05:16;5.82;;;1.77;;
7199;SDS011;3641;49.082;8.200;2022-10-16T11:07:52;6.10;;;1.80;;
7199;SDS011;3641;49.082;8.200;2022-10-16T11:10:25;5.78;;;1.67;;
7199;SDS011;3641;49.082;8.200;2022-10-16T11:12:55;7.80;;;2.05;;
7199;SDS011;3641;49.082;8.200;2022-10-16T11:15:29;6.57;;;2.35;;
7199;SDS011;3641;49.082;8.200;2022-10-16T11:17:59;6.75;;;2.00;;
7199;SDS011;3641;49.082;8.200;2022-10-16T11:20:34;6.50;;;1.67;;
7199;SDS011;3641;49.082;8.200;2022-10-16T11:23:05;8.82;;;2.22;;
7199;SDS011;3641;49.082;8.200;2022-10-16T11:25:39;5.28;;;1.98;;
7199;SDS011;3641;49.082;8.200;2022-10-16T11:28:08;3.40;;;1.80;;
7199;SDS011;3641;49.082;8.200;2022-10-16T11:30:39;5.03;;;1.83;;
7199;SDS011;3641;49.082;8.200;2022-10-16T11:33:20;7.05;;;2.13;;
7199;SDS011;3641;49.082;8.200;2022-10-16T11:35:53;6.60;;;2.30;;
7199;SDS011;3641;49.082;8.200;2022-10-16T11:38:25;5.80;;;2.10;;
7199;SDS011;3641;49.082;8.200;2022-10-16T11:40:59;4.32;;;1.80;;
7199;SDS011;3641;49.082;8.200;2022-10-16T11:43:31;6.68;;;1.85;;
7199;SDS011;3641;49.082;8.200;2022-10-16T11:46:02;8.82;;;2.35;;
7199;SDS011;3641;49.082;8.200;2022-10-16T11:48:35;3.63;;;1.85;;
7199;SDS011;3641;49.082;8.200;2022-10-16T11:51:08;12.43;;;1.70;;
7199;SDS011;3641;49.082;8.200;2022-10-16T11:53:43;4.47;;;2.15;;
7199;SDS011;3641;49.082;8.200;2022-10-16T11:56:14;6.20;;;2.03;;
7199;SDS011;3641;49.082;8.200;2022-10-16T11:58:46;6.15;;;2.25;;
7199;SDS011;3641;49.082;8.200;2022-10-16T12:01:22;6.10;;;2.10;;
7199;SDS011;3641;49.082;8.200;2022-10-16T12:03:59;5.97;;;2.15;;
7199;SDS011;3641;49.082;8.200;2022-10-16T12:06:33;10.60;;;2.88;;
7199;SDS011;3641;49.082;8.200;2022-10-16T12:09:03;6.55;;;1.90;;
7199;SDS011;3641;49.082;8.200;2022-10-16T12:11:33;5.20;;;2.10;;
7199;SDS011;3641;49.082;8.200;2022-10-16T12:14:06;5.25;;;2.05;;
7199;SDS011;3641;49.082;8.200;2022-10-16T12:16:50;6.85;;;2.38;;
7199;SDS011;3641;49.082;8.200;2022-10-16T12:19:18;7.60;;;2.80;;
7199;SDS011;3641;49.082;8.200;2022-10-16T12:21:46;7.47;;;2.35;;
7199;SDS011;3641;49.082;8.200;2022-10-16T12:24:30;5.65;;;2.33;;
7199;SDS011;3641;49.082;8.200;2022-10-16T12:27:01;4.20;;;2.42;;
7199;SDS011;3641;49.082;8.200;2022-10-16T12:29:33;5.68;;;2.28;;
7199;SDS011;3641;49.082;8.200;2022-10-16T12:32:03;4.57;;;2.40;;
7199;SDS011;3641;49.082;8.200;2022-10-16T12:34:34;5.38;;;2.53;;
7199;SDS011;3641;49.082;8.200;2022-10-16T12:37:15;7.88;;;2.25;;
7199;SDS011;3641;49.082;8.200;2022-10-16T12:39:48;5.65;;;2.30;;
7199;SDS011;3641;49.082;8.200;2022-10-16T12:42:21;8.27;;;2.58;;
7199;SDS011;3641;49.082;8.200;2022-10-16T12:44:50;5.85;;;2.20;;
7199;SDS011;3641;49.082;8.200;2022-10-16T12:47:20;4.82;;;2.83;;
7199;SDS011;3641;49.082;8.200;2022-10-16T12:49:49;7.07;;;2.33;;
7199;SDS011;3641;49.082;8.200;2022-10-16T12:52:24;10.00;;;2.60;;
7199;SDS011;3641;49.082;8.200;2022-10-16T12:54:55;4.07;;;2.20;;
7199;SDS011;3641;49.082;8.200;2022-10-16T12:57:29;5.97;;;2.00;;
7199;SDS011;3641;49.082;8.200;2022-10-16T13:00:07;7.88;;;2.25;;
7199;SDS011;3641;49.082;8.200;2022-10-16T13:02:49;9.18;;;2.30;;
7199;SDS011;3641;49.082;8.200;2022-10-16T13:05:35;6.57;;;1.98;;
7199;SDS011;3641;49.082;8.200;2022-10-16T13:08:22;6.68;;;2.22;;
7199;SDS011;3641;49.082;8.200;2022-10-16T13:11:03;6.10;;;2.50;;
7199;SDS011;3641;49.082;8.200;2022-10-16T13:13:43;5.72;;;2.53;;
7199;SDS011;3641;49.082;8.200;2022-10-16T13:16:24;9.00;;;2.45;;
7199;SDS011;3641;49.082;8.200;2022-10-16T13:19:01;8.40;;;2.67;;
7199;SDS011;3641;49.082;8.200;2022-10-16T13:21:41;6.20;;;2.75;;
7199;SDS011;3641;49.082;8.200;2022-10-16T13:24:19;9.45;;;2.42;;
7199;SDS011;3641;49.082;8.200;2022-10-16T13:26:57;5.53;;;2.55;;
7199;SDS011;3641;49.082;8.200;2022-10-16T13:29:32;7.35;;;2.88;;
7199;SDS011;3641;49.082;8.200;2022-10-16T13:32:00;5.85;;;2.70;;
7199;SDS011;3641;49.082;8.200;2022-10-16T13:34:27;5.93;;;2.90;;
7199;SDS011;3641;49.082;8.200;2022-10-16T13:36:55;7.72;;;3.10;;
7199;SDS011;3641;49.082;8.200;2022-10-16T13:39:23;6.05;;;2.80;;
7199;SDS011;3641;49.082;8.200;2022-10-16T13:42:03;7.68;;;3.05;;
7199;SDS011;3641;49.082;8.200;2022-10-16T13:44:35;6.30;;;2.90;;
7199;SDS011;3641;49.082;8.200;2022-10-16T13:47:10;4.63;;;2.80;;
7199;SDS011;3641;49.082;8.200;2022-10-16T13:49:42;4.35;;;2.97;;
7199;SDS011;3641;49.082;8.200;2022-10-16T13:52:15;8.30;;;3.15;;
7199;SDS011;3641;49.082;8.200;2022-10-16T13:54:43;8.18;;;3.00;;
7199;SDS011;3641;49.082;8.200;2022-10-16T13:57:11;5.30;;;2.72;;
7199;SDS011;3641;49.082;8.200;2022-10-16T13:59:40;5.43;;;2.75;;
7199;SDS011;3641;49.082;8.200;2022-10-16T14:02:10;6.75;;;3.05;;
7199;SDS011;3641;49.082;8.200;2022-10-16T14:04:45;7.30;;;2.90;;
7199;SDS011;3641;49.082;8.200;2022-10-16T14:07:13;9.52;;;3.63;;
7199;SDS011;3641;49.082;8.200;2022-10-16T14:09:47;4.60;;;2.90;;
7199;SDS011;3641;49.082;8.200;2022-10-16T14:12:14;6.45;;;2.88;;
7199;SDS011;3641;49.082;8.200;2022-10-16T14:14:43;7.10;;;2.75;;
7199;SDS011;3641;49.082;8.200;2022-10-16T14:17:14;6.25;;;3.10;;
7199;SDS011;3641;49.082;8.200;2022-10-16T14:19:45;7.25;;;3.25;;
7199;SDS011;3641;49.082;8.200;2022-10-16T14:22:22;7.60;;;3.63;;
7199;SDS011;3641;49.082;8.200;2022-10-16T14:24:55;9.32;;;3.72;;
7199;SDS011;3641;49.082;8.200;2022-10-16T14:27:23;7.38;;;4.05;;
7199;SDS011;3641;49.082;8.200;2022-10-16T14:30:05;9.52;;;4.35;;
7199;SDS011;3641;49.082;8.200;2022-10-16T14:32:39;8.85;;;3.55;;
7199;SDS011;3641;49.082;8.200;2022-10-16T14:35:11;8.57;;;2.72;;
7199;SDS011;3641;49.082;8.200;2022-10-16T14:37:51;7.60;;;2.80;;
7199;SDS011;3641;49.082;8.200;2022-10-16T14:40:18;8.68;;;2.88;;
7199;SDS011;3641;49.082;8.200;2022-10-16T14:42:46;5.78;;;2.70;;
7199;SDS011;3641;49.082;8.200;2022-10-16T14:45:14;4.28;;;2.50;;
7199;SDS011;3641;49.082;8.200;2022-10-16T14:47:47;8.13;;;2.65;;
7199;SDS011;3641;49.082;8.200;2022-10-16T14:50:16;7.70;;;2.80;;
7199;SDS011;3641;49.082;8.200;2022-10-16T14:52:42;7.78;;;2.58;;
7199;SDS011;3641;49.082;8.200;2022-10-16T14:55:09;5.57;;;2.67;;
7199;SDS011;3641;49.082;8.200;2022-10-16T14:57:36;6.40;;;3.15;;
7199;SDS011;3641;49.082;8.200;2022-10-16T15:00:04;6.10;;;2.67;;
7199;SDS011;3641;49.082;8.200;2022-10-16T15:02:40;5.35;;;2.83;;
7199;SDS011;3641;49.082;8.200;2022-10-16T15:05:10;5.30;;;2.75;;
7199;SDS011;3641;49.082;8.200;2022-10-16T15:07:39;6.80;;;2.70;;
7199;SDS011;3641;49.082;8.200;2022-10-16T15:10:06;6.25;;;2.83;;
7199;SDS011;3641;49.082;8.200;2022-10-16T15:12:32;6.88;;;2.75;;
7199;SDS011;3641;49.082;8.200;2022-10-16T15:14:59;5.72;;;3.30;;
7199;SDS011;3641;49.082;8.200;2022-10-16T15:17:26;9.05;;;3.50;;
7199;SDS011;3641;49.082;8.200;2022-10-16T15:19:53;7.93;;;3.03;;
7199;SDS011;3641;49.082;8.200;2022-10-16T15:22:20;7.97;;;4.80;;
7199;SDS011;3641;49.082;8.200;2022-10-16T15:24:48;10.00;;;4.72;;
7199;SDS011;3641;49.082;8.200;2022-10-16T15:27:14;11.57;;;5.40;;
7199;SDS011;3641;49.082;8.200;2022-10-16T15:29:41;8.75;;;4.88;;
7199;SDS011;3641;49.082;8.200;2022-10-16T15:32:08;13.45;;;7.47;;
7199;SDS011;3641;49.082;8.200;2022-10-16T15:34:35;10.82;;;5.72;;